Time;durP1;ratioP1;P1;durP2;ratioP2;P2;SDS_P1;SDS_P2;PMS_P1;PMS_P2;Temp;Humidity;BMP_temperature;BMP_pressure;BME280_temperature;BME280_humidity;BME280_pressure;Samples;Min_cycle;Max_cycle;Signal;HPM_P1;HPM_P2
2022/08/02 00:02:10;;;;;;;6.55;2.97;;;12.10;99.90;;;;;;5001849;28;20032;-68
2022/08/02 00:04:36;;;;;;;6.20;3.45;;;12.10;99.90;;;;;;5027013;28;20119;-67
2022/08/02 00:07:01;;;;;;;5.57;3.20;;;12.00;99.90;;;;;;5031331;28;20040;-68
2022/08/02 00:09:27;;;;;;;6.95;2.97;;;12.10;99.90;;;;;;5046139;28;20511;-68
2022/08/02 00:11:53;;;;;;;3.95;2.85;;;12.10;99.90;;;;;;5014918;28;20120;-67
2022/08/02 00:14:19;;;;;;;7.43;3.45;;;12.10;99.90;;;;;;5047197;28;20153;-67
2022/08/02 00:16:44;;;;;;;4.57;3.75;;;12.10;99.90;;;;;;5026237;28;20503;-67
2022/08/02 00:19:10;;;;;;;5.15;3.17;;;12.10;99.90;;;;;;5014666;28;20067;-68
2022/08/02 00:21:36;;;;;;;5.95;3.17;;;12.10;99.90;;;;;;5014585;28;20480;-67
2022/08/02 00:24:01;;;;;;;4.80;3.10;;;12.10;99.90;;;;;;5031357;28;20499;-67
2022/08/02 00:26:27;;;;;;;7.53;2.90;;;12.10;99.90;;;;;;5013046;28;20041;-67
2022/08/02 00:28:53;;;;;;;5.75;3.15;;;12.10;99.90;;;;;;4994462;28;20486;-67
2022/08/02 00:31:18;;;;;;;7.03;3.40;;;12.10;99.90;;;;;;5015015;28;20040;-67
2022/08/02 00:33:44;;;;;;;5.70;3.47;;;12.10;99.90;;;;;;5029769;28;20073;-67
2022/08/02 00:36:09;;;;;;;5.38;3.28;;;12.10;99.90;;;;;;5011396;28;20120;-67
2022/08/02 00:38:35;;;;;;;8.07;3.40;;;12.10;99.90;;;;;;5032341;28;20037;-67
2022/08/02 00:41:01;;;;;;;5.75;3.40;;;12.00;99.90;;;;;;5011845;28;20080;-67
2022/08/02 00:43:26;;;;;;;6.38;3.60;;;12.00;99.90;;;;;;5047979;28;20480;-67
2022/08/02 00:45:52;;;;;;;6.45;3.45;;;12.00;99.90;;;;;;5008977;28;20042;-67
2022/08/02 00:48:18;;;;;;;6.63;3.55;;;11.90;99.90;;;;;;5014768;28;20069;-67
2022/08/02 00:50:43;;;;;;;4.00;3.33;;;11.90;99.90;;;;;;4987560;28;20070;-68
2022/08/02 00:53:09;;;;;;;5.78;3.83;;;11.90;99.90;;;;;;5001893;28;20081;-67
2022/08/02 00:55:36;;;;;;;6.80;3.55;;;11.90;99.90;;;;;;5013854;28;20380;-68
2022/08/02 00:58:02;;;;;;;5.13;3.90;;;11.90;99.90;;;;;;5014745;28;20048;-67
2022/08/02 01:00:28;;;;;;;7.22;4.47;;;11.90;99.90;;;;;;5013466;28;20099;-67
2022/08/02 01:02:53;;;;;;;7.40;4.05;;;11.80;99.90;;;;;;5014196;28;20069;-68
2022/08/02 01:05:19;;;;;;;5.28;3.65;;;11.80;99.90;;;;;;5030592;28;20475;-67
2022/08/02 01:07:45;;;;;;;7.28;4.05;;;11.80;99.90;;;;;;4988970;28;20076;-67
2022/08/02 01:10:10;;;;;;;7.18;3.63;;;11.70;99.90;;;;;;5026367;28;20056;-67
2022/08/02 01:12:36;;;;;;;7.95;3.85;;;11.70;99.90;;;;;;5013054;28;20041;-67
2022/08/02 01:15:09;;;;;;;6.57;4.18;;;11.70;99.90;;;;;;5013263;28;20077;-67
2022/08/02 01:17:49;;;;;;;5.25;4.00;;;11.70;99.90;;;;;;5009655;28;20037;-67
2022/08/02 01:20:34;;;;;;;7.10;4.45;;;11.60;99.90;;;;;;5011553;28;20092;-67
2022/08/02 01:23:07;;;;;;;7.40;3.92;;;11.60;99.90;;;;;;5008490;28;20046;-67
2022/08/02 01:26:18;;;;;;;6.60;3.75;;;11.60;99.90;;;;;;5013003;28;20110;-68
2022/08/02 01:29:04;;;;;;;5.50;3.78;;;11.50;99.90;;;;;;4974110;28;20061;-68
2022/08/02 01:31:37;;;;;;;7.30;4.03;;;11.50;99.90;;;;;;5011909;28;20069;-70
2022/08/02 01:34:05;;;;;;;5.25;4.07;;;11.50;99.90;;;;;;5031142;28;20040;-68
2022/08/02 01:36:37;;;;;;;6.10;3.83;;;11.40;99.90;;;;;;5006609;28;20052;-67
2022/08/02 01:39:04;;;;;;;5.90;3.70;;;11.40;99.90;;;;;;5025558;28;20439;-68
2022/08/02 01:41:33;;;;;;;7.47;3.72;;;11.40;99.90;;;;;;5006266;28;20044;-67
2022/08/02 01:44:00;;;;;;;8.52;3.63;;;11.40;99.90;;;;;;5010964;28;20049;-67
2022/08/02 01:46:29;;;;;;;5.47;3.30;;;11.30;99.90;;;;;;5006311;28;20052;-67
2022/08/02 01:48:56;;;;;;;9.32;3.92;;;11.30;99.90;;;;;;5028537;28;20041;-67
2022/08/02 01:54:16;;;;;;;5.97;3.80;;;11.20;99.90;;;;;;5040932;28;20077;-68
2022/08/02 01:56:44;;;;;;;5.82;3.75;;;11.30;99.90;;;;;;5022147;28;20152;-67
2022/08/02 01:59:14;;;;;;;5.65;3.30;;;11.20;99.90;;;;;;5037650;28;20487;-68
2022/08/02 02:01:41;;;;;;;8.85;3.75;;;11.20;99.90;;;;;;4998970;28;20038;-66
2022/08/02 02:04:08;;;;;;;8.13;3.58;;;11.20;99.90;;;;;;5028433;28;20160;-67
2022/08/02 02:06:35;;;;;;;7.32;3.78;;;11.20;99.90;;;;;;4999248;28;20415;-67
2022/08/02 02:09:03;;;;;;;9.88;4.40;;;11.10;99.90;;;;;;5007546;28;20415;-67
2022/08/02 02:11:30;;;;;;;5.07;4.00;;;11.20;99.90;;;;;;5003986;28;20434;-68
2022/08/02 02:14:01;;;;;;;5.50;3.88;;;11.10;99.90;;;;;;5035642;28;20033;-68
2022/08/02 02:16:27;;;;;;;7.82;3.97;;;11.20;99.90;;;;;;5043355;28;20568;-68
2022/08/02 02:18:53;;;;;;;5.65;3.38;;;11.20;99.90;;;;;;5021778;28;20049;-67
2022/08/02 02:21:19;;;;;;;7.78;4.28;;;11.20;99.90;;;;;;5011183;28;20118;-67
2022/08/02 02:23:45;;;;;;;7.32;3.85;;;11.20;99.90;;;;;;5016064;28;20076;-68
2022/08/02 02:26:14;;;;;;;9.70;4.25;;;11.20;99.90;;;;;;5029919;28;20049;-67
2022/08/02 02:28:42;;;;;;;5.78;4.03;;;11.10;99.90;;;;;;5006413;28;20068;-67
2022/08/02 02:31:11;;;;;;;7.13;3.88;;;11.20;99.90;;;;;;5025976;28;20057;-68
2022/08/02 02:33:47;;;;;;;8.13;3.90;;;11.10;99.90;;;;;;5007130;28;20111;-67
2022/08/02 02:36:19;;;;;;;7.53;3.55;;;11.20;99.90;;;;;;5041776;28;20555;-67
2022/08/02 02:38:46;;;;;;;;;;;11.10;99.90;;;;;;5058854;22;20065;-68
2022/08/02 02:41:14;;;;;;;4.93;3.72;;;11.20;99.90;;;;;;5063833;28;20469;-68
2022/08/02 02:43:42;;;;;;;8.30;3.92;;;11.10;99.90;;;;;;5070386;28;20072;-68
2022/08/02 02:46:09;;;;;;;12.60;4.60;;;11.10;99.90;;;;;;5070862;28;20044;-68
2022/08/02 02:48:36;;;;;;;5.15;3.40;;;11.10;99.90;;;;;;5052839;28;20087;-68
2022/08/02 02:51:04;;;;;;;6.13;4.15;;;11.10;99.90;;;;;;5070958;28;20037;-68
2022/08/02 02:53:30;;;;;;;7.07;4.10;;;11.10;99.90;;;;;;5061341;28;20078;-68
2022/08/02 02:55:57;;;;;;;7.25;4.00;;;11.10;99.90;;;;;;5073461;28;20040;-68
2022/08/02 02:58:23;;;;;;;6.55;4.28;;;11.20;99.90;;;;;;5073721;28;20105;-68
2022/08/02 03:03:34;;;;;;;7.82;3.75;;;11.10;99.90;;;;;;5040276;28;20060;-68
2022/08/02 03:06:00;;;;;;;7.72;4.00;;;11.20;99.90;;;;;;5046608;28;20037;-68
2022/08/02 03:08:25;;;;;;;9.40;3.97;;;11.20;99.90;;;;;;5047319;28;20044;-68
2022/08/02 03:10:51;;;;;;;10.13;4.07;;;11.20;99.90;;;;;;5073687;28;20044;-69
2022/08/02 03:13:18;;;;;;;5.53;3.58;;;11.20;99.90;;;;;;5073105;28;20067;-68
2022/08/02 03:15:46;;;;;;;6.40;3.70;;;11.20;99.90;;;;;;5038872;28;20502;-68
2022/08/02 03:18:29;;;;;;;5.72;3.40;;;11.10;99.90;;;;;;5055675;28;20037;-68
2022/08/02 03:21:00;;;;;;;5.90;3.20;;;11.20;99.90;;;;;;5044623;28;20037;-68
2022/08/02 03:23:26;;;;;;;6.80;3.90;;;11.10;99.90;;;;;;5055011;28;20048;-69
2022/08/02 03:25:51;;;;;;;6.68;3.70;;;11.10;99.90;;;;;;5055295;28;20048;-69
2022/08/02 03:28:17;;;;;;;8.95;4.55;;;11.10;99.90;;;;;;5037708;28;20048;-69
2022/08/02 03:30:42;;;;;;;8.32;4.05;;;11.20;99.90;;;;;;5051210;28;20560;-69
2022/08/02 03:33:09;;;;;;;7.55;3.65;;;11.10;99.90;;;;;;5069330;28;20024;-69
2022/08/02 03:35:36;;;;;;;7.47;3.78;;;11.20;99.90;;;;;;5073446;28;20043;-69
2022/08/02 03:38:02;;;;;;;9.48;3.90;;;11.20;99.90;;;;;;5038806;28;20041;-69
2022/08/02 03:40:28;;;;;;;9.60;3.55;;;11.20;99.90;;;;;;5043957;28;20045;-69
2022/08/02 03:42:55;;;;;;;6.38;3.85;;;11.20;99.90;;;;;;5040077;28;20543;-69
2022/08/02 03:45:21;;;;;;;8.15;3.58;;;11.20;99.90;;;;;;5073103;28;20040;-68
2022/08/02 03:47:47;;;;;;;4.63;3.50;;;11.20;99.90;;;;;;5067087;28;20068;-68
2022/08/02 03:50:13;;;;;;;6.30;3.60;;;11.20;99.90;;;;;;5035438;28;20106;-69
2022/08/02 03:52:44;;;;;;;8.85;3.78;;;11.30;99.90;;;;;;5054259;28;20048;-68
2022/08/02 03:55:10;;;;;;;9.05;3.78;;;11.30;99.90;;;;;;5052641;28;20482;-68
2022/08/02 03:57:40;;;;;;;5.55;3.80;;;11.30;99.90;;;;;;5058341;28;20044;-69
2022/08/02 04:00:08;;;;;;;8.25;4.00;;;11.30;99.90;;;;;;5062352;28;20040;-69
2022/08/02 04:02:35;;;;;;;8.02;3.85;;;11.30;99.90;;;;;;5046861;28;20124;-68
2022/08/02 04:05:00;;;;;;;7.35;4.25;;;11.40;99.90;;;;;;5053940;28;20044;-68
2022/08/02 04:07:26;;;;;;;7.45;3.72;;;11.40;99.90;;;;;;5071791;28;20055;-68
2022/08/02 04:09:52;;;;;;;6.72;4.22;;;11.40;99.90;;;;;;5036950;28;20055;-68
2022/08/02 04:12:17;;;;;;;8.55;4.40;;;11.50;99.90;;;;;;5070418;28;20043;-68
2022/08/02 04:14:43;;;;;;;8.75;4.40;;;11.50;99.90;;;;;;5052696;28;20504;-69
2022/08/02 04:17:11;;;;;;;5.82;4.28;;;11.50;99.90;;;;;;5048914;28;20049;-69
2022/08/02 04:19:38;;;;;;;7.13;3.95;;;11.50;99.90;;;;;;5034404;28;20048;-69
2022/08/02 04:22:08;;;;;;;7.85;5.07;;;11.60;99.90;;;;;;5052751;28;20059;-68
2022/08/02 04:24:44;;;;;;;8.23;5.00;;;11.60;99.90;;;;;;5052314;28;20033;-69
2022/08/02 04:27:10;;;;;;;12.20;5.25;;;11.70;99.90;;;;;;5072098;28;20055;-69
2022/08/02 04:29:36;;;;;;;9.98;5.63;;;11.70;99.90;;;;;;5069271;28;20402;-69
2022/08/02 04:32:04;;;;;;;8.90;5.10;;;11.80;99.90;;;;;;5062735;28;20037;-69
2022/08/02 04:34:30;;;;;;;10.75;6.00;;;11.80;99.90;;;;;;5051751;28;20413;-69
2022/08/02 04:36:57;;;;;;;8.48;5.13;;;11.90;99.90;;;;;;5040921;28;20044;-69
2022/08/02 04:39:23;;;;;;;7.88;5.20;;;12.00;99.90;;;;;;5044310;28;20055;-69
2022/08/02 04:41:49;;;;;;;10.70;5.75;;;12.00;99.90;;;;;;5051608;28;20630;-69
2022/08/02 04:44:14;;;;;;;10.20;5.57;;;12.10;99.90;;;;;;5071299;28;20753;-69
2022/08/02 04:46:41;;;;;;;10.27;6.20;;;12.10;99.90;;;;;;5036603;28;20142;-69
2022/08/02 04:49:07;;;;;;;11.05;6.25;;;12.20;99.90;;;;;;5048538;28;20047;-69
2022/08/02 04:51:38;;;;;;;11.77;6.00;;;12.30;99.90;;;;;;5052889;28;20041;-69
2022/08/02 04:54:05;;;;;;;8.70;5.28;;;12.30;99.90;;;;;;5068950;28;20490;-69
2022/08/02 04:56:30;;;;;;;11.32;6.03;;;12.40;99.90;;;;;;5041236;28;20389;-69
2022/08/02 04:58:56;;;;;;;9.23;5.78;;;12.50;99.90;;;;;;5052849;28;20040;-69
2022/08/02 05:01:21;;;;;;;9.00;6.15;;;12.50;99.90;;;;;;5051899;28;20041;-69
2022/08/02 05:03:47;;;;;;;12.52;6.65;;;12.60;99.90;;;;;;5047036;28;20048;-69
2022/08/02 05:06:12;;;;;;;9.55;6.05;;;12.70;99.90;;;;;;5049417;28;20500;-69
2022/08/02 05:08:38;;;;;;;10.73;6.10;;;12.70;99.90;;;;;;5044651;28;20627;-69
2022/08/02 05:11:04;;;;;;;10.35;6.97;;;12.80;99.90;;;;;;5030353;28;20063;-69
2022/08/02 05:13:29;;;;;;;10.70;6.60;;;12.90;99.90;;;;;;5052314;28;20112;-68
2022/08/02 05:15:57;;;;;;;8.73;6.40;;;12.90;99.90;;;;;;5040171;28;20036;-68
2022/08/02 05:18:23;;;;;;;10.15;6.22;;;13.00;99.90;;;;;;5034620;28;20036;-69
2022/08/02 05:20:48;;;;;;;9.73;6.05;;;13.10;99.90;;;;;;5038077;28;20154;-69
2022/08/02 05:23:14;;;;;;;8.90;6.22;;;13.10;99.90;;;;;;5068590;28;20047;-69
2022/08/02 05:25:39;;;;;;;8.52;5.57;;;13.20;99.90;;;;;;5039841;28;20052;-69
2022/08/02 05:28:05;;;;;;;11.35;6.65;;;13.30;99.90;;;;;;5063254;28;20043;-69
2022/08/02 05:30:30;;;;;;;9.85;6.10;;;13.40;99.90;;;;;;5053310;28;20359;-69
2022/08/02 05:32:56;;;;;;;10.52;6.47;;;13.50;99.90;;;;;;5049256;28;20045;-69
2022/08/02 05:35:23;;;;;;;10.32;6.13;;;13.60;99.90;;;;;;5053977;28;20033;-69
2022/08/02 05:37:50;;;;;;;9.48;6.55;;;13.70;99.90;;;;;;5054010;28;20056;-69
2022/08/02 05:40:16;;;;;;;10.35;6.30;;;13.80;99.90;;;;;;5037214;28;20126;-69
2022/08/02 05:42:43;;;;;;;11.23;6.20;;;13.90;99.90;;;;;;5033537;28;20051;-69
2022/08/02 05:45:09;;;;;;;12.07;6.38;;;14.00;99.90;;;;;;5033370;28;20037;-69
2022/08/02 05:47:35;;;;;;;12.35;6.43;;;14.10;99.90;;;;;;5052412;28;20087;-69
2022/08/02 05:50:01;;;;;;;10.50;5.50;;;14.30;99.90;;;;;;5050554;28;20386;-69
2022/08/02 05:52:37;;;;;;;7.90;5.68;;;14.40;99.90;;;;;;5031963;28;20048;-69
2022/08/02 05:55:13;;;;;;;8.20;5.53;;;14.50;99.90;;;;;;5046361;28;20379;-69
2022/08/02 05:58:21;;;;;;;9.50;5.40;;;14.60;99.90;;;;;;5034150;28;20047;-69
2022/08/02 06:00:48;;;;;;;8.20;4.88;;;15.20;99.90;;;;;;4994670;28;20075;-69
2022/08/02 06:03:19;;;;;;;8.45;4.47;;;17.20;99.90;;;;;;5071426;28;20121;-69
2022/08/02 06:05:52;;;;;;;8.27;4.30;;;18.80;99.90;;;;;;5070098;28;20041;-69
2022/08/02 06:08:20;;;;;;;5.85;3.60;;;20.50;99.90;;;;;;5038051;28;20862;-69
2022/08/02 06:10:47;;;;;;;10.38;3.78;;;21.20;99.90;;;;;;5052768;28;20051;-70
2022/08/02 06:13:15;;;;;;;6.38;3.70;;;22.20;99.90;;;;;;5052781;28;20032;-68
2022/08/02 06:15:41;;;;;;;7.85;3.55;;;22.90;99.90;;;;;;5052983;28;20074;-69
2022/08/02 06:18:08;;;;;;;5.43;3.17;;;24.10;94.20;;;;;;5036167;28;20036;-68
2022/08/02 06:20:35;;;;;;;5.05;3.08;;;24.20;97.40;;;;;;5070876;28;20052;-69
2022/08/02 06:23:06;;;;;;;7.65;3.03;;;24.80;96.60;;;;;;5049739;28;20036;-68
2022/08/02 06:25:34;;;;;;;6.50;2.90;;;25.20;94.50;;;;;;5046307;28;20467;-68
2022/08/02 06:28:01;;;;;;;5.82;2.80;;;25.60;93.00;;;;;;5070211;28;20086;-68
2022/08/02 06:30:28;;;;;;;5.63;2.90;;;26.30;93.40;;;;;;5069105;28;20036;-68
2022/08/02 06:32:54;;;;;;;7.43;2.45;;;26.70;92.50;;;;;;5033776;28;20287;-68
2022/08/02 06:35:21;;;;;;;4.57;2.25;;;;;;;;;;5051190;28;20040;-69
2022/08/02 06:37:52;;;;;;;5.13;2.60;;;27.30;90.10;;;;;;5069615;28;20055;-69
2022/08/02 06:40:23;;;;;;;5.00;2.67;;;27.30;90.00;;;;;;5052669;28;20109;-69
2022/08/02 06:43:20;;;;;;;4.50;1.92;;;27.50;89.30;;;;;;5058816;28;20048;-69
2022/08/02 06:45:46;;;;;;;8.38;2.45;;;27.90;86.60;;;;;;5066479;28;20045;-69
2022/08/02 06:48:12;;;;;;;8.85;2.58;;;28.20;88.00;;;;;;5033655;28;20044;-69
2022/08/02 06:50:38;;;;;;;4.95;1.88;;;28.00;86.60;;;;;;5015963;28;20049;-69
2022/08/02 06:53:08;;;;;;;5.50;1.73;;;27.80;86.20;;;;;;5058593;28;20473;-68
2022/08/02 06:55:33;;;;;;;5.38;2.00;;;27.80;84.70;;;;;;5051084;28;20124;-68
2022/08/02 06:57:59;;;;;;;8.13;2.05;;;27.90;83.80;;;;;;5050283;28;20873;-68
2022/08/02 07:00:25;;;;;;;6.85;1.90;;;27.90;82.90;;;;;;5070608;28;20048;-68
2022/08/02 07:02:51;;;;;;;5.63;2.03;;;27.90;81.00;;;;;;5065303;28;20123;-69
2022/08/02 07:05:18;;;;;;;8.98;2.50;;;28.20;82.70;;;;;;5056143;28;20058;-70
2022/08/02 07:07:44;;;;;;;4.82;2.15;;;28.50;81.30;;;;;;5033475;28;20049;-69
2022/08/02 07:10:09;;;;;;;3.25;1.90;;;28.70;82.40;;;;;;5054027;28;20052;-68
2022/08/02 07:12:35;;;;;;;3.97;1.90;;;29.00;81.60;;;;;;5066844;28;20128;-69
2022/08/02 07:15:05;;;;;;;3.17;1.67;;;29.10;81.00;;;;;;5053610;28;20076;-68
2022/08/02 07:17:30;;;;;;;7.95;2.13;;;29.50;79.60;;;;;;5062034;28;20090;-68
2022/08/02 07:19:57;;;;;;;3.50;1.63;;;29.90;79.70;;;;;;5041266;28;20044;-69
2022/08/02 07:22:23;;;;;;;5.88;2.22;;;30.20;78.10;;;;;;5047695;28;21642;-69
2022/08/02 07:24:49;;;;;;;6.95;1.88;;;29.80;76.00;;;;;;5073628;28;20478;-69
2022/08/02 07:27:15;;;;;;;4.57;1.42;;;29.90;74.80;;;;;;5055787;28;20458;-69
2022/08/02 07:29:41;;;;;;;4.95;1.55;;;29.90;75.40;;;;;;5073680;28;20047;-69
2022/08/02 07:32:06;;;;;;;4.10;1.52;;;29.30;75.20;;;;;;5054508;28;20040;-68
2022/08/02 07:34:32;;;;;;;4.00;1.73;;;28.70;75.10;;;;;;5045695;28;20124;-69
2022/08/02 07:36:58;;;;;;;3.65;1.55;;;28.20;74.20;;;;;;5064156;28;20079;-69
2022/08/02 07:39:24;;;;;;;6.20;1.52;;;28.10;76.10;;;;;;5044963;28;20421;-68
2022/08/02 07:41:50;;;;;;;4.95;1.50;;;28.40;76.90;;;;;;5071160;28;20067;-67
2022/08/02 07:44:20;;;;;;;3.63;1.40;;;29.00;75.20;;;;;;5072902;28;20385;-68
2022/08/02 07:46:46;;;;;;;4.97;1.63;;;29.40;74.30;;;;;;5038034;28;20131;-68
2022/08/02 07:49:17;;;;;;;4.65;1.45;;;29.70;74.20;;;;;;5068457;28;20140;-68
2022/08/02 07:51:45;;;;;;;3.67;1.33;;;29.80;72.40;;;;;;5070360;28;20056;-68
2022/08/02 07:54:11;;;;;;;2.85;1.40;;;30.00;72.50;;;;;;5052497;28;20053;-68
2022/08/02 07:56:37;;;;;;;3.88;1.13;;;30.10;72.00;;;;;;5046611;28;20036;-73
2022/08/02 07:59:03;;;;;;;4.32;1.45;;;30.00;70.70;;;;;;5052903;28;20052;-73
2022/08/02 08:01:29;;;;;;;3.05;1.15;;;30.00;71.00;;;;;;5068391;28;20040;-73
2022/08/02 08:03:55;;;;;;;3.00;1.17;;;30.10;70.90;;;;;;5065393;28;20025;-72
2022/08/02 08:06:20;;;;;;;3.88;1.42;;;29.90;68.00;;;;;;5048140;28;20047;-73
2022/08/02 08:08:46;;;;;;;3.15;1.02;;;29.50;70.00;;;;;;5047479;28;20052;-73
2022/08/02 08:11:12;;;;;;;4.07;0.93;;;28.60;69.20;;;;;;5046720;28;20490;-73
2022/08/02 08:13:38;;;;;;;2.05;0.95;;;27.80;69.70;;;;;;5069052;28;20036;-73
2022/08/02 08:16:05;;;;;;;2.97;0.90;;;27.00;68.30;;;;;;5061810;28;20370;-73
2022/08/02 08:18:30;;;;;;;2.42;0.90;;;26.50;69.30;;;;;;5043768;28;20045;-74
2022/08/02 08:20:56;;;;;;;2.58;1.00;;;26.20;70.60;;;;;;5036278;28;20075;-74
2022/08/02 08:23:22;;;;;;;4.47;1.05;;;25.90;71.70;;;;;;5072362;28;20378;-73
2022/08/02 08:25:48;;;;;;;3.33;0.90;;;25.60;72.40;;;;;;5021256;28;20067;-74
2022/08/02 08:28:14;;;;;;;4.40;0.90;;;25.30;71.80;;;;;;5066676;28;20439;-73
2022/08/02 08:30:41;;;;;;;3.83;1.10;;;25.20;73.10;;;;;;5054375;28;20044;-74
2022/08/02 08:33:07;;;;;;;3.05;0.95;;;25.00;74.70;;;;;;5072679;28;20044;-74
2022/08/02 08:35:33;;;;;;;2.13;1.00;;;24.90;74.90;;;;;;5063452;28;20167;-74
2022/08/02 08:37:58;;;;;;;1.90;0.80;;;25.00;75.10;;;;;;5063051;28;20053;-74
2022/08/02 08:40:24;;;;;;;3.83;1.00;;;24.80;76.50;;;;;;5062802;28;20055;-73
2022/08/02 08:42:51;;;;;;;2.08;0.90;;;24.80;76.70;;;;;;5044460;28;20131;-73
2022/08/02 08:45:16;;;;;;;2.55;0.85;;;24.70;74.20;;;;;;5068997;28;20046;-73
2022/08/02 08:47:42;;;;;;;3.63;1.10;;;24.60;75.60;;;;;;5054512;28;20052;-73
2022/08/02 08:50:20;;;;;;;1.55;1.15;;;24.60;77.30;;;;;;5051086;28;20048;-73
2022/08/02 08:52:52;;;;;;;3.40;0.90;;;24.50;79.20;;;;;;5059654;28;20115;-73
2022/08/02 08:55:25;;;;;;;3.53;1.20;;;24.50;78.40;;;;;;5037577;28;20116;-73
2022/08/02 08:57:52;;;;;;;4.63;1.35;;;24.60;78.00;;;;;;5063594;28;20041;-73
2022/08/02 09:00:18;;;;;;;3.42;1.20;;;24.70;78.10;;;;;;5056677;28;20139;-73
2022/08/02 09:02:44;;;;;;;1.77;1.00;;;24.60;78.00;;;;;;5051626;28;20131;-73
2022/08/02 09:05:11;;;;;;;3.40;1.25;;;24.70;78.10;;;;;;5049635;28;20100;-73
2022/08/02 09:07:36;;;;;;;2.15;0.70;;;24.60;77.20;;;;;;5064298;28;20037;-73
2022/08/02 09:10:41;;;;;;;2.72;1.00;;;24.60;78.10;;;;;;5038409;28;20067;-73
2022/08/02 09:13:22;;;;;;;4.22;1.65;;;24.70;78.10;;;;;;5033582;28;20071;-73
2022/08/02 09:15:55;;;;;;;3.20;1.02;;;24.70;79.40;;;;;;5038107;28;20068;-73
2022/08/02 09:18:35;;;;;;;2.42;1.10;;;24.70;79.50;;;;;;5057805;28;20048;-73
2022/08/02 09:21:03;;;;;;;3.88;1.13;;;24.80;80.40;;;;;;5038526;28;20037;-73
2022/08/02 09:23:37;;;;;;;2.42;1.23;;;24.90;79.10;;;;;;5063774;28;20040;-73
2022/08/02 09:26:05;;;;;;;2.33;0.98;;;25.00;80.30;;;;;;5057570;28;20072;-73
2022/08/02 09:28:34;;;;;;;1.60;1.00;;;25.10;78.10;;;;;;5037437;28;20039;-73
2022/08/02 09:31:20;;;;;;;1.83;1.20;;;25.10;77.80;;;;;;5063368;28;20039;-73
2022/08/02 09:33:58;;;;;;;5.97;1.42;;;25.20;77.80;;;;;;5061914;28;20041;-73
2022/08/02 09:36:25;;;;;;;1.63;1.10;;;25.10;76.40;;;;;;5064631;28;20667;-73
2022/08/02 09:39:00;;;;;;;3.33;1.40;;;25.30;79.60;;;;;;5056075;28;20049;-73
2022/08/02 09:41:27;;;;;;;2.08;1.00;;;25.30;78.80;;;;;;5052643;28;20086;-73
2022/08/02 09:43:55;;;;;;;3.22;1.20;;;25.30;79.00;;;;;;5065043;28;20174;-73
2022/08/02 09:46:22;;;;;;;2.35;1.30;;;25.40;79.00;;;;;;5061085;28;20029;-73
2022/08/02 09:48:53;;;;;;;4.72;1.15;;;25.60;79.50;;;;;;5056584;28;22965;-73
2022/08/02 09:51:22;;;;;;;3.90;1.52;;;25.70;79.90;;;;;;5060084;28;20101;-73
2022/08/02 09:53:50;;;;;;;5.80;1.20;;;25.80;79.10;;;;;;5054776;28;20386;-73
2022/08/02 09:56:16;;;;;;;3.22;1.35;;;25.80;78.50;;;;;;5065851;28;20033;-73
2022/08/02 09:58:43;;;;;;;2.33;1.30;;;25.80;78.40;;;;;;5041716;28;20075;-73
2022/08/02 10:01:08;;;;;;;3.05;2.17;;;25.90;78.70;;;;;;5050787;28;20105;-72
2022/08/02 10:03:35;;;;;;;4.65;1.98;;;26.00;79.90;;;;;;5062897;28;20494;-72
2022/08/02 10:06:01;;;;;;;4.25;1.60;;;26.10;77.80;;;;;;5045871;28;20044;-68
2022/08/02 10:08:27;;;;;;;2.38;1.75;;;26.10;79.20;;;;;;5050320;28;20796;-68
2022/08/02 10:11:00;;;;;;;3.95;2.10;;;26.30;80.10;;;;;;5058776;28;20555;-68
2022/08/02 10:13:30;;;;;;;3.08;1.80;;;26.40;79.70;;;;;;5060085;28;20029;-68
2022/08/02 10:15:56;;;;;;;3.20;1.30;;;26.40;78.90;;;;;;5043781;28;20033;-69
2022/08/02 10:18:22;;;;;;;2.92;1.70;;;26.40;79.70;;;;;;5038791;28;20402;-69
2022/08/02 10:20:49;;;;;;;3.20;1.90;;;26.60;78.90;;;;;;5059279;28;20043;-68
2022/08/02 10:23:15;;;;;;;3.85;1.83;;;26.60;78.20;;;;;;5038192;28;20087;-68
2022/08/02 10:25:43;;;;;;;4.68;1.73;;;26.80;79.60;;;;;;5033151;28;20045;-69
2022/08/02 10:28:11;;;;;;;3.90;2.55;;;26.90;80.30;;;;;;5054785;28;20041;-68
2022/08/02 10:30:41;;;;;;;6.22;2.10;;;26.80;78.20;;;;;;5059566;28;20048;-68
2022/08/02 10:33:09;;;;;;;2.58;2.00;;;26.80;78.30;;;;;;5052721;28;20086;-69
2022/08/02 10:35:37;;;;;;;7.00;2.70;;;26.70;80.50;;;;;;5059392;28;20033;-69
2022/08/02 10:38:07;;;;;;;4.10;2.63;;;26.70;79.40;;;;;;5046901;28;20505;-68
2022/08/02 10:40:46;;;;;;;5.00;2.65;;;26.70;80.10;;;;;;5034600;28;20044;-68
2022/08/02 10:43:32;;;;;;;6.05;2.95;;;26.70;80.80;;;;;;5049289;28;20072;-68
2022/08/02 10:46:32;;;;;;;4.72;2.78;;;26.70;80.70;;;;;;5045760;28;20044;-67
2022/08/02 10:49:11;;;;;;;4.60;2.63;;;26.70;81.70;;;;;;5038005;28;20060;-68
2022/08/02 10:51:54;;;;;;;3.40;2.13;;;26.80;82.50;;;;;;5056268;28;20132;-69
2022/08/02 10:54:30;;;;;;;5.53;3.10;;;26.90;81.10;;;;;;5042205;28;20507;-68
2022/08/02 10:56:57;;;;;;;4.22;2.20;;;27.00;80.90;;;;;;5050817;28;20041;-68
2022/08/02 10:59:30;;;;;;;3.85;2.63;;;27.10;81.10;;;;;;5044234;28;20085;-68
2022/08/02 11:02:03;;;;;;;5.43;2.88;;;27.10;81.90;;;;;;5042336;28;20048;-68
2022/08/02 11:04:52;;;;;;;3.42;2.25;;;27.20;80.90;;;;;;5071100;28;20119;-68
2022/08/02 11:07:41;;;;;;;5.13;2.60;;;27.30;82.70;;;;;;5050748;28;20037;-69
2022/08/02 11:10:37;;;;;;;3.83;2.10;;;27.40;81.90;;;;;;5045138;28;20215;-68
2022/08/02 11:13:18;;;;;;;5.05;2.00;;;27.50;79.50;;;;;;5032373;28;20101;-68
2022/08/02 11:15:46;;;;;;;3.90;2.25;;;27.60;80.80;;;;;;5066484;28;20043;-68
2022/08/02 11:18:12;;;;;;;5.15;2.20;;;27.50;79.50;;;;;;5066320;28;20040;-68
2022/08/02 11:20:38;;;;;;;3.28;2.25;;;27.60;81.10;;;;;;5052882;28;20051;-68
2022/08/02 11:23:35;;;;;;;5.95;2.60;;;27.80;78.80;;;;;;5071190;28;20133;-69
2022/08/02 11:26:04;;;;;;;3.15;2.42;;;27.80;79.20;;;;;;5035375;28;20049;-68
2022/08/02 11:28:30;;;;;;;2.97;2.40;;;27.90;79.30;;;;;;5047843;28;20128;-68
2022/08/02 11:31:00;;;;;;;3.88;2.50;;;27.90;79.20;;;;;;5044401;28;20040;-68
2022/08/02 11:33:30;;;;;;;3.55;2.20;;;27.90;81.10;;;;;;5061256;28;20033;-68
2022/08/02 11:36:01;;;;;;;4.15;2.33;;;27.90;82.10;;;;;;5057211;28;20113;-69
2022/08/02 11:38:26;;;;;;;7.45;2.53;;;27.90;78.40;;;;;;5059416;28;20040;-69
2022/08/02 11:40:52;;;;;;;4.28;2.13;;;27.90;77.60;;;;;;5072680;28;20371;-69
2022/08/02 11:43:23;;;;;;;4.18;2.80;;;28.00;79.40;;;;;;5048670;28;20036;-69
2022/08/02 11:45:51;;;;;;;6.57;2.28;;;28.20;78.70;;;;;;5067471;28;20036;-68
2022/08/02 11:48:31;;;;;;;3.88;2.80;;;28.00;79.20;;;;;;5070643;28;20395;-68
2022/08/02 11:51:16;;;;;;;8.48;2.58;;;27.90;78.40;;;;;;5048359;28;20041;-68
2022/08/02 11:53:44;;;;;;;5.38;2.47;;;27.80;80.50;;;;;;5068063;28;20480;-69
2022/08/02 11:56:11;;;;;;;2.75;2.03;;;27.80;81.70;;;;;;5044740;28;20474;-69
2022/08/02 11:58:37;;;;;;;3.20;2.50;;;27.90;79.60;;;;;;5070279;28;20041;-68
2022/08/02 12:01:04;;;;;;;5.63;2.20;;;27.90;79.80;;;;;;5068488;28;20043;-69
2022/08/02 12:03:38;;;;;;;3.95;2.08;;;27.90;79.90;;;;;;5049526;28;20077;-68
2022/08/02 12:06:04;;;;;;;3.80;2.33;;;28.00;80.40;;;;;;5070201;28;20068;-68
2022/08/02 12:08:36;;;;;;;6.45;2.13;;;28.10;79.60;;;;;;5071098;28;20036;-69
2022/08/02 12:11:02;;;;;;;2.50;1.73;;;28.30;79.20;;;;;;5034967;28;20037;-68
2022/08/02 12:13:40;;;;;;;4.07;2.15;;;28.40;78.80;;;;;;5035170;28;20040;-68
2022/08/02 12:21:42;;;;;;;2.47;1.33;;;28.40;78.10;;;;;;5054863;28;20044;-69
2022/08/02 12:24:09;;;;;;;2.38;1.52;;;28.50;77.30;;;;;;5036344;28;20049;-69
2022/08/02 12:26:45;;;;;;;2.90;1.67;;;28.50;78.60;;;;;;5052296;28;20482;-69
2022/08/02 12:29:11;;;;;;;2.53;1.65;;;28.70;76.00;;;;;;5052778;28;20045;-69
2022/08/02 12:31:48;;;;;;;2.42;1.60;;;28.70;77.20;;;;;;5052616;28;20440;-68
2022/08/02 12:34:17;;;;;;;2.00;1.63;;;28.60;77.80;;;;;;5052236;28;20045;-68
2022/08/02 12:36:55;;;;;;;2.40;1.85;;;28.60;76.40;;;;;;5051821;28;20041;-68
2022/08/02 12:39:31;;;;;;;3.58;1.80;;;28.50;76.00;;;;;;5051690;28;20451;-68
2022/08/02 12:41:57;;;;;;;4.57;2.00;;;28.20;77.70;;;;;;5068888;28;20047;-68
2022/08/02 12:44:22;;;;;;;4.30;2.00;;;28.10;77.60;;;;;;5043755;28;20466;-68
2022/08/02 12:46:58;;;;;;;3.50;2.72;;;28.10;80.80;;;;;;5052357;28;20087;-68
2022/08/02 12:49:24;;;;;;;5.68;2.80;;;28.00;79.10;;;;;;5051666;28;20048;-69
2022/08/02 12:51:49;;;;;;;3.08;2.40;;;28.10;77.80;;;;;;5053673;28;20047;-68
2022/08/02 12:54:21;;;;;;;4.78;3.17;;;28.00;79.70;;;;;;5053840;28;20068;-68
2022/08/02 12:56:47;;;;;;;4.00;2.95;;;28.00;78.60;;;;;;5053198;28;20598;-68
2022/08/02 12:59:14;;;;;;;4.18;3.20;;;28.00;78.90;;;;;;5034961;28;20042;-68
2022/08/02 13:01:40;;;;;;;5.65;3.45;;;27.90;79.20;;;;;;5071986;28;20153;-68
2022/08/02 13:04:06;;;;;;;3.60;3.00;;;27.90;78.50;;;;;;5053869;28;20070;-68
2022/08/02 13:06:32;;;;;;;5.00;3.58;;;27.90;79.30;;;;;;5048978;28;20471;-68